createdAt,value
2023-04-02T00:00:05.917Z,99509.23
2023-04-02T00:02:34.050Z,99511.77
2023-04-02T00:05:20.442Z,99513.13
2023-04-02T00:07:53.097Z,99516.16
2023-04-02T00:10:29.098Z,99514.64
2023-04-02T00:13:12.230Z,99519.20
2023-04-02T00:15:43.553Z,99520.89
2023-04-02T00:18:16.526Z,99520.20
2023-04-02T00:20:49.287Z,99523.08
2023-04-02T00:23:17.140Z,99523.41
2023-04-02T00:25:46.383Z,99523.25
2023-04-02T00:28:17.993Z,99522.41
2023-04-02T00:30:47.163Z,99521.73
2023-04-02T00:33:21.583Z,99521.21
2023-04-02T00:35:52.109Z,99523.59
2023-04-02T00:38:24.956Z,99524.25
2023-04-02T00:40:56.546Z,99528.14
2023-04-02T00:43:31.515Z,99529.15
2023-04-02T00:46:14.711Z,99530.52
2023-04-02T00:49:16.937Z,99529.83
2023-04-02T00:51:51.668Z,99533.02
2023-04-02T00:54:23.316Z,99533.88
2023-04-02T00:56:53.758Z,99530.84
2023-04-02T00:59:49.602Z,99533.20
2023-04-02T01:02:20.083Z,99538.27
2023-04-02T01:05:02.403Z,99538.95
2023-04-02T01:07:49.516Z,99538.45
2023-04-02T01:10:24.712Z,99540.65
2023-04-02T01:13:12.484Z,99541.14
2023-04-02T01:15:55.582Z,99541.81
2023-04-02T01:18:50.375Z,99543.85
2023-04-02T01:21:37.208Z,99548.57
2023-04-02T01:24:11.325Z,99552.29
2023-04-02T01:27:02.553Z,99551.26
2023-04-02T01:29:37.208Z,99557.18
2023-04-02T01:32:09.304Z,99561.09
2023-04-02T01:34:38.134Z,99564.97
2023-04-02T01:37:10.408Z,99566.17
2023-04-02T01:39:47.300Z,99567.86
2023-04-02T01:42:28.971Z,99574.29
2023-04-02T01:45:19.779Z,99575.46
2023-04-02T01:47:49.010Z,99581.20
2023-04-02T01:50:19.728Z,99579.98
2023-04-02T01:52:51.665Z,99582.64
2023-04-02T01:55:25.565Z,99582.95
2023-04-02T01:57:54.425Z,99586.34
2023-04-02T02:00:23.216Z,99588.85
2023-04-02T02:02:51.999Z,99587.30
2023-04-02T02:05:23.786Z,99589.17
2023-04-02T02:07:52.284Z,99589.16
2023-04-02T02:10:49.645Z,99592.35
2023-04-02T02:13:17.334Z,99600.98
2023-04-02T02:15:45.713Z,99610.61
2023-04-02T02:18:14.458Z,99613.98
2023-04-02T02:20:42.747Z,99617.52
2023-04-02T02:23:13.171Z,99618.02
2023-04-02T02:25:41.724Z,99618.16
2023-04-02T02:28:26.162Z,99620.34
2023-04-02T02:30:59.259Z,99622.87
2023-04-02T02:33:31.842Z,99626.25
2023-04-02T02:36:05.011Z,99632.66
2023-04-02T02:38:38.571Z,99634.17
2023-04-02T02:41:21.660Z,99634.83
2023-04-02T02:43:56.808Z,99635.67
2023-04-02T02:46:27.352Z,99640.58
2023-04-02T02:48:57.735Z,99640.59
2023-04-02T02:51:37.608Z,99643.30
2023-04-02T02:54:05.717Z,99647.17
2023-04-02T02:56:38.523Z,99650.03
2023-04-02T02:59:08.638Z,99656.77
2023-04-02T03:01:36.974Z,99660.80
2023-04-02T03:04:05.098Z,99661.30
2023-04-02T03:06:33.252Z,99662.97
2023-04-02T03:09:17.766Z,99665.33
2023-04-02T03:12:03.830Z,99669.02
2023-04-02T03:15:06.485Z,99665.80
2023-04-02T03:17:41.369Z,99667.98
2023-04-02T03:20:21.095Z,99673.85
2023-04-02T03:23:22.082Z,99675.88
2023-04-02T03:25:56.464Z,99676.69
2023-04-02T03:28:28.934Z,99679.55
2023-04-02T03:31:27.911Z,99683.96
2023-04-02T03:34:18.596Z,99686.95
2023-04-02T03:36:58.104Z,99685.59
2023-04-02T03:39:58.158Z,99689.98
2023-04-02T03:42:29.859Z,99693.84
2023-04-02T03:45:05.230Z,99698.73
2023-04-02T03:47:42.678Z,99701.86
2023-04-02T03:50:24.814Z,99707.50
2023-04-02T03:52:52.981Z,99706.60
2023-04-02T03:55:29.160Z,99711.27
2023-04-02T03:58:15.128Z,99711.02
2023-04-02T04:01:07.244Z,99714.48
2023-04-02T04:03:44.177Z,99714.93
2023-04-02T04:06:15.934Z,99722.15
2023-04-02T04:09:11.846Z,99724.43
2023-04-02T04:11:46.765Z,99728.57
2023-04-02T04:14:26.970Z,99733.25
2023-04-02T04:17:05.371Z,99741.86
2023-04-02T04:19:48.529Z,99740.80
2023-04-02T04:22:30.709Z,99746.30
2023-04-02T04:25:00.902Z,99748.95
2023-04-02T04:27:56.693Z,99752.34
2023-04-02T04:30:30.216Z,99757.89
2023-04-02T04:33:11.107Z,99756.52
2023-04-02T04:35:46.630Z,99758.71
2023-04-02T04:38:27.661Z,99763.41
2023-04-02T04:40:58.970Z,99766.96
2023-04-02T04:43:52.828Z,99766.48
2023-04-02T04:46:55.409Z,99767.98
2023-04-02T04:49:31.976Z,99770.86
2023-04-02T04:52:22.299Z,99778.94
2023-04-02T04:54:50.113Z,99780.98
2023-04-02T04:57:29.969Z,99782.52
2023-04-02T05:00:19.641Z,99781.84
2023-04-02T05:02:54.416Z,99785.95
2023-04-02T05:05:29.352Z,99791.38
2023-04-02T05:08:04.359Z,99794.11
2023-04-02T05:11:04.365Z,99799.19
2023-04-02T05:13:44.732Z,99809.80
2023-04-02T05:16:15.587Z,99807.32
2023-04-02T05:18:56.427Z,99811.68
2023-04-02T05:21:38.433Z,99811.48
2023-04-02T05:24:39.543Z,99814.65
2023-04-02T05:27:24.541Z,99823.23
2023-04-02T05:30:00.720Z,99827.27
2023-04-02T05:32:34.759Z,99829.56
2023-04-02T05:35:06.617Z,99836.48
2023-04-02T05:37:34.635Z,99836.41
2023-04-02T05:40:13.603Z,99836.98
2023-04-02T05:42:45.223Z,99842.88
2023-04-02T05:45:31.347Z,99846.71
2023-04-02T05:48:03.582Z,99856.66
2023-04-02T05:50:40.090Z,99867.48
2023-04-02T05:53:21.694Z,99877.90
2023-04-02T05:56:02.269Z,99881.64
2023-04-02T05:58:48.186Z,99880.61
2023-04-02T06:01:38.207Z,99882.46
2023-04-02T06:04:37.771Z,99879.23
2023-04-02T06:07:12.423Z,99883.26
2023-04-02T06:10:00.440Z,99882.94
2023-04-02T06:12:40.603Z,99890.46
2023-04-02T06:15:21.154Z,99894.48
2023-04-02T06:17:58.515Z,99897.48
2023-04-02T06:20:27.122Z,99904.35
2023-04-02T06:23:04.800Z,99905.34
2023-04-02T06:25:37.937Z,99916.98
2023-04-02T06:28:12.008Z,99921.05
2023-04-02T06:30:41.759Z,99922.92
2023-04-02T06:33:12.776Z,99926.96
2023-04-02T06:35:43.055Z,99929.65
2023-04-02T06:38:19.653Z,99935.72
2023-04-02T06:40:55.235Z,99936.17
2023-04-02T06:43:33.492Z,99940.39
2023-04-02T06:46:07.364Z,99942.09
2023-04-02T06:48:37.866Z,99944.81
2023-04-02T06:51:09.212Z,99949.30
2023-04-02T06:53:40.252Z,99954.48
2023-04-02T06:56:32.998Z,99956.60
2023-04-02T06:59:01.178Z,99961.52
2023-04-02T07:01:33.600Z,99964.05
2023-04-02T07:04:01.613Z,99964.73
2023-04-02T07:06:29.584Z,99970.18
2023-04-02T07:08:57.241Z,99973.59
2023-04-02T07:11:24.915Z,99975.89
2023-04-02T07:13:52.756Z,99975.27
2023-04-02T07:16:25.796Z,99977.55
2023-04-02T07:19:03.068Z,99983.33
2023-04-02T07:21:31.422Z,99989.00
2023-04-02T07:23:59.374Z,99999.20
2023-04-02T07:26:29.174Z,99998.05
2023-04-02T07:28:57.293Z,99998.98
2023-04-02T07:31:27.860Z,100000.42
2023-04-02T07:34:00.335Z,100001.10
2023-04-02T07:36:29.840Z,100003.06
2023-04-02T07:38:58.563Z,100004.27
2023-04-02T07:41:26.560Z,100008.56
2023-04-02T07:43:54.385Z,100009.80
2023-04-02T07:46:22.266Z,100017.77
2023-04-02T07:49:00.216Z,100022.00
2023-04-02T07:51:28.373Z,100030.96
2023-04-02T07:53:56.426Z,100030.71
2023-04-02T07:56:25.496Z,100030.48
2023-04-02T07:58:53.230Z,100035.94
2023-04-02T08:01:25.566Z,100038.55
2023-04-02T08:03:54.844Z,100038.39
2023-04-02T08:06:23.981Z,100044.84
2023-04-02T08:08:51.852Z,100045.84
2023-04-02T08:11:20.075Z,100044.58
2023-04-02T08:13:48.014Z,100055.70
2023-04-02T08:16:16.910Z,100072.88
2023-04-02T08:18:47.496Z,100082.32
2023-04-02T08:21:16.533Z,100085.11
2023-04-02T08:23:44.937Z,100092.02
2023-04-02T08:26:17.467Z,100095.89
2023-04-02T08:28:45.550Z,100094.20
2023-04-02T08:31:13.537Z,100094.20
2023-04-02T08:33:41.325Z,100098.77
2023-04-02T08:36:15.701Z,100100.21
2023-04-02T08:38:43.416Z,100100.48
2023-04-02T08:41:22.606Z,100100.90
2023-04-02T08:44:02.210Z,100107.37
2023-04-02T08:46:45.838Z,100111.23
2023-04-02T08:49:16.889Z,100114.29
2023-04-02T08:51:46.394Z,100119.23
2023-04-02T08:54:43.666Z,100117.17
2023-04-02T08:57:21.319Z,100116.06
2023-04-02T08:59:59.775Z,100117.07
2023-04-02T09:02:47.340Z,100122.83
2023-04-02T09:05:26.520Z,100128.83
2023-04-02T09:07:58.580Z,100127.08
2023-04-02T09:10:37.779Z,100128.83
2023-04-02T09:13:20.656Z,100129.43
2023-04-02T09:15:50.801Z,100132.38
2023-04-02T09:18:20.757Z,100136.33
2023-04-02T09:20:49.510Z,100135.89
2023-04-02T09:23:23.902Z,100142.90
2023-04-02T09:26:03.466Z,100145.27
2023-04-02T09:28:34.857Z,100148.44
2023-04-02T09:31:34.625Z,100146.88
2023-04-02T09:34:22.504Z,100154.08
2023-04-02T09:36:50.560Z,100158.61
2023-04-02T09:39:21.240Z,100163.88
2023-04-02T09:41:59.014Z,100164.95
2023-04-02T09:44:33.760Z,100170.22
2023-04-02T09:47:10.649Z,100176.33
2023-04-02T09:49:39.972Z,100182.48
2023-04-02T09:52:27.957Z,100185.32
2023-04-02T09:55:08.393Z,100186.95
2023-04-02T09:57:38.295Z,100191.79
2023-04-02T10:00:25.261Z,100192.91
2023-04-02T10:03:19.520Z,100194.58
2023-04-02T10:05:48.738Z,100190.91
2023-04-02T10:08:19.300Z,100192.55
2023-04-02T10:10:53.064Z,100195.29
2023-04-02T10:13:31.889Z,100190.89
2023-04-02T10:16:12.170Z,100193.56
2023-04-02T10:18:50.908Z,100200.95
2023-04-02T10:21:25.314Z,100206.34
2023-04-02T10:23:54.720Z,100209.64
2023-04-02T10:26:44.182Z,100217.58
2023-04-02T10:29:18.085Z,100226.02
2023-04-02T10:31:54.678Z,100229.30
2023-04-02T10:34:54.059Z,100231.13
2023-04-02T10:37:49.738Z,100237.90
2023-04-02T10:40:24.694Z,100239.51
2023-04-02T10:43:15.424Z,100245.76
2023-04-02T10:45:51.193Z,100248.45
2023-04-02T10:48:40.497Z,100255.11
2023-04-02T10:51:28.548Z,100258.84
2023-04-02T10:54:03.716Z,100262.33
2023-04-02T10:56:41.004Z,100265.91
2023-04-02T10:59:33.024Z,100267.65
2023-04-02T11:02:07.391Z,100274.32
2023-04-02T11:04:44.219Z,100276.17
2023-04-02T11:07:20.654Z,100281.23
2023-04-02T11:09:53.593Z,100285.02
2023-04-02T11:12:59.660Z,100292.90
2023-04-02T11:15:29.357Z,100294.98
2023-04-02T11:17:57.360Z,100300.87
2023-04-02T11:20:54.617Z,100305.91
2023-04-02T11:23:32.027Z,100310.10
2023-04-02T11:26:29.655Z,100313.83
2023-04-02T11:29:16.683Z,100321.81
2023-04-02T11:31:46.205Z,100324.57
2023-04-02T11:34:35.144Z,100327.96
2023-04-02T11:37:07.892Z,100332.15
2023-04-02T11:39:57.061Z,100335.89
2023-04-02T11:42:27.497Z,100342.05
2023-04-02T11:44:58.935Z,100345.31
2023-04-02T11:47:28.570Z,100356.17
2023-04-02T11:49:59.063Z,100362.58
2023-04-02T11:52:36.153Z,100362.79
2023-04-02T11:55:27.961Z,100362.17
2023-04-02T11:58:33.379Z,100359.83
2023-04-02T12:01:14.844Z,100364.89
2023-04-02T12:03:48.564Z,100365.21
2023-04-02T12:06:47.276Z,100363.58
2023-04-02T12:09:53.838Z,100366.93
2023-04-02T12:12:24.317Z,100370.54
2023-04-02T12:15:02.407Z,100373.52
2023-04-02T12:17:39.286Z,100371.88
2023-04-02T12:20:08.569Z,100375.30
2023-04-02T12:22:46.165Z,100372.48
2023-04-02T12:25:31.488Z,100380.48
2023-04-02T12:28:20.814Z,100386.61
2023-04-02T12:30:51.159Z,100380.20
2023-04-02T12:33:33.866Z,100381.33
2023-04-02T12:36:03.599Z,100381.94
2023-04-02T12:38:36.983Z,100383.53
2023-04-02T12:41:18.536Z,100384.07
2023-04-02T12:43:46.296Z,100393.72
2023-04-02T12:46:15.135Z,100389.09
2023-04-02T12:48:43.040Z,100390.14
2023-04-02T12:51:11.328Z,100400.42
2023-04-02T12:53:41.249Z,100406.45
2023-04-02T12:56:19.561Z,100408.90
2023-04-02T12:58:58.857Z,100415.36
2023-04-02T13:01:29.377Z,100415.77
2023-04-02T13:04:01.626Z,100421.27
2023-04-02T13:06:30.841Z,100428.44
2023-04-02T13:08:59.998Z,100430.81
2023-04-02T13:11:39.562Z,100435.67
2023-04-02T13:14:17.277Z,100435.61
2023-04-02T13:16:45.047Z,100435.80
2023-04-02T13:19:24.155Z,100436.84
2023-04-02T13:21:53.124Z,100434.15
2023-04-02T13:24:42.150Z,100438.89
2023-04-02T13:27:11.154Z,100441.64
2023-04-02T13:29:38.914Z,100447.28
2023-04-02T13:32:13.027Z,100450.08
2023-04-02T13:34:40.734Z,100449.95
2023-04-02T13:37:12.381Z,100449.33
2023-04-02T13:39:40.107Z,100450.33
2023-04-02T13:42:11.825Z,100450.29
2023-04-02T13:44:39.648Z,100453.23
2023-04-02T13:47:07.509Z,100453.39
2023-04-02T13:49:36.027Z,100462.67
2023-04-02T13:52:05.245Z,100459.69
2023-04-02T13:54:46.656Z,100463.65
2023-04-02T13:57:14.889Z,100466.95
2023-04-02T13:59:42.823Z,100467.03
2023-04-02T14:02:17.210Z,100470.16
2023-04-02T14:04:52.877Z,100472.20
2023-04-02T14:07:40.587Z,100478.13
2023-04-02T14:10:15.072Z,100487.29
2023-04-02T14:13:04.161Z,100486.05
2023-04-02T14:15:44.747Z,100490.70
2023-04-02T14:18:24.038Z,100496.05
2023-04-02T14:21:07.893Z,100505.43
2023-04-02T14:23:47.557Z,100510.98
2023-04-02T14:27:05.999Z,100515.26
2023-04-02T14:29:45.669Z,100519.23
2023-04-02T14:32:49.205Z,100517.75
2023-04-02T14:35:19.745Z,100524.13
2023-04-02T14:38:00.099Z,100523.98
2023-04-02T14:40:51.611Z,100528.06
2023-04-02T14:43:37.072Z,100532.23
2023-04-02T14:46:12.492Z,100535.55
2023-04-02T14:48:47.838Z,100537.98
2023-04-02T14:51:37.388Z,100541.55
2023-04-02T14:54:23.546Z,100539.52
2023-04-02T14:56:59.320Z,100540.19
2023-04-02T14:59:34.057Z,100543.31
2023-04-02T15:02:07.930Z,100548.20
2023-04-02T15:04:45.793Z,100553.98
2023-04-02T15:07:19.830Z,100555.02
2023-04-02T15:10:14.312Z,100561.23
2023-04-02T15:12:44.300Z,100565.27
2023-04-02T15:15:11.971Z,100566.66
2023-04-02T15:17:39.718Z,100569.96
2023-04-02T15:20:18.821Z,100572.34
2023-04-02T15:23:17.270Z,100574.83
2023-04-02T15:25:55.478Z,100578.52
2023-04-02T15:28:31.814Z,100583.52
2023-04-02T15:31:07.274Z,100585.98
2023-04-02T15:33:39.258Z,100590.13
2023-04-02T15:36:36.994Z,100594.54
2023-04-02T15:39:26.416Z,100595.66
2023-04-02T15:42:17.000Z,100602.94
2023-04-02T15:45:01.397Z,100605.48
2023-04-02T15:47:56.153Z,100608.64
2023-04-02T15:50:43.912Z,100613.22
2023-04-02T15:53:39.272Z,100617.14
2023-04-02T15:56:36.201Z,100617.63
2023-04-02T15:59:40.925Z,100624.31
2023-04-02T16:02:29.624Z,100626.52
2023-04-02T16:05:04.089Z,100636.95
2023-04-02T16:08:24.366Z,100641.73
2023-04-02T16:10:52.056Z,100647.55
2023-04-02T16:13:36.886Z,100652.41
2023-04-02T16:16:10.748Z,100659.77
2023-04-02T16:18:47.378Z,100657.27
2023-04-02T16:21:20.702Z,100659.77
2023-04-02T16:23:49.459Z,100664.67
2023-04-02T16:26:29.449Z,100669.40
2023-04-02T16:29:06.155Z,100678.64
2023-04-02T16:31:47.101Z,100681.33
2023-04-02T16:34:30.816Z,100686.73
2023-04-02T16:37:12.630Z,100688.63
2023-04-02T16:39:57.647Z,100693.77
2023-04-02T16:42:48.408Z,100700.73
2023-04-02T16:45:43.937Z,100703.67
2023-04-02T16:48:25.073Z,100706.94
2023-04-02T16:51:19.796Z,100709.09
2023-04-02T16:54:01.392Z,100711.84
2023-04-02T16:56:39.673Z,100712.60
2023-04-02T16:59:17.730Z,100714.75
2023-04-02T17:02:13.048Z,100714.61
2023-04-02T17:05:10.228Z,100724.26
2023-04-02T17:08:21.394Z,100726.40
2023-04-02T17:11:01.356Z,100729.05
2023-04-02T17:14:08.198Z,100731.20
2023-04-02T17:16:42.950Z,100733.89
2023-04-02T17:19:13.751Z,100739.82
2023-04-02T17:21:46.403Z,100742.44
2023-04-02T17:24:23.167Z,100749.23
2023-04-02T17:26:56.465Z,100750.05
2023-04-02T17:29:34.647Z,100758.88
2023-04-02T17:32:04.616Z,100762.35
2023-04-02T17:34:32.489Z,100763.61
2023-04-02T17:37:11.514Z,100769.27
2023-04-02T17:39:49.517Z,100772.71
2023-04-02T17:42:36.200Z,100775.83
2023-04-02T17:45:25.372Z,100776.95
2023-04-02T17:48:24.913Z,100778.96
2023-04-02T17:51:08.219Z,100780.65
2023-04-02T17:53:54.506Z,100785.14
2023-04-02T17:56:38.192Z,100787.23
2023-04-02T17:59:23.753Z,100788.74
2023-04-02T18:02:01.132Z,100791.05
2023-04-02T18:04:47.108Z,100786.35
2023-04-02T18:07:49.158Z,100788.64
2023-04-02T18:10:23.034Z,100794.52
2023-04-02T18:12:57.727Z,100794.29
2023-04-02T18:15:41.343Z,100794.40
2023-04-02T18:18:19.807Z,100795.63
2023-04-02T18:21:21.530Z,100798.90
2023-04-02T18:24:20.040Z,100805.43
2023-04-02T18:27:09.314Z,100808.55
2023-04-02T18:29:39.736Z,100806.66
2023-04-02T18:32:19.422Z,100809.28
2023-04-02T18:34:58.783Z,100811.55
2023-04-02T18:37:32.531Z,100812.64
2023-04-02T18:40:18.995Z,100813.38
2023-04-02T18:42:59.841Z,100821.05
2023-04-02T18:45:46.245Z,100819.63
2023-04-02T18:48:39.239Z,100822.27
2023-04-02T18:51:14.328Z,100823.03
2023-04-02T18:53:43.180Z,100827.67
2023-04-02T18:56:18.000Z,100826.69
2023-04-02T18:58:52.973Z,100829.79
2023-04-02T19:01:28.257Z,100833.68
2023-04-02T19:04:06.293Z,100837.66
2023-04-02T19:06:43.311Z,100838.21
2023-04-02T19:09:21.341Z,100838.45
2023-04-02T19:11:49.072Z,100837.16
2023-04-02T19:14:19.447Z,100840.88
2023-04-02T19:17:28.857Z,100841.61
2023-04-02T19:20:05.893Z,100841.41
2023-04-02T19:22:39.563Z,100844.45
2023-04-02T19:25:35.985Z,100845.78
2023-04-02T19:28:07.400Z,100845.59
2023-04-02T19:30:58.398Z,100847.91
2023-04-02T19:33:36.802Z,100846.50
2023-04-02T19:36:32.260Z,100848.54
2023-04-02T19:39:14.931Z,100848.25
2023-04-02T19:41:51.699Z,100850.10
2023-04-02T19:44:20.753Z,100858.52
2023-04-02T19:46:51.443Z,100857.11
2023-04-02T19:49:25.397Z,100862.30
2023-04-02T19:51:53.735Z,100864.80
2023-04-02T19:54:21.947Z,100867.22
2023-04-02T19:56:50.141Z,100867.90
2023-04-02T19:59:18.914Z,100875.07
2023-04-02T20:01:47.339Z,100875.22
2023-04-02T20:04:15.501Z,100874.30
2023-04-02T20:06:43.705Z,100875.73
2023-04-02T20:09:11.577Z,100874.34
2023-04-02T20:11:39.335Z,100877.91
2023-04-02T20:14:07.096Z,100885.00
2023-04-02T20:16:36.878Z,100886.60
2023-04-02T20:19:04.698Z,100889.92
2023-04-02T20:21:38.243Z,100893.79
2023-04-02T20:24:07.526Z,100898.68
2023-04-02T20:26:36.700Z,100898.44
2023-04-02T20:29:04.413Z,100901.92
2023-04-02T20:31:32.774Z,100903.09
2023-04-02T20:34:02.561Z,100907.59
2023-04-02T20:36:31.295Z,100907.94
2023-04-02T20:38:59.076Z,100912.12
2023-04-02T20:41:27.475Z,100910.09
2023-04-02T20:43:55.354Z,100914.13
2023-04-02T20:46:23.163Z,100913.75
2023-04-02T20:48:51.103Z,100916.16
2023-04-02T20:51:18.754Z,100918.18
2023-04-02T20:53:46.691Z,100917.00
2023-04-02T20:56:16.656Z,100921.02
2023-04-02T20:58:44.694Z,100924.88
2023-04-02T21:01:21.522Z,100929.38
2023-04-02T21:03:54.174Z,100933.59
2023-04-02T21:06:23.947Z,100932.90
2023-04-02T21:08:52.497Z,100935.38
2023-04-02T21:11:22.468Z,100938.87
2023-04-02T21:13:52.904Z,100936.77
2023-04-02T21:16:23.526Z,100940.73
2023-04-02T21:18:53.130Z,100942.64
2023-04-02T21:21:22.675Z,100942.91
2023-04-02T21:23:56.527Z,100945.59
2023-04-02T21:26:27.044Z,100946.42
2023-04-02T21:28:55.974Z,100946.73
2023-04-02T21:31:26.518Z,100945.64
2023-04-02T21:33:57.345Z,100946.46
2023-04-02T21:36:29.067Z,100947.58
2023-04-02T21:38:59.551Z,100949.55
2023-04-02T21:41:30.771Z,100954.64
2023-04-02T21:44:00.321Z,100956.29
2023-04-02T21:46:30.597Z,100958.59
2023-04-02T21:48:59.971Z,100962.66
2023-04-02T21:51:30.104Z,100966.98
2023-04-02T21:53:58.751Z,100972.34
2023-04-02T21:56:29.961Z,100972.08
2023-04-02T21:58:59.318Z,100968.19
2023-04-02T22:01:28.837Z,100972.79
2023-04-02T22:03:58.621Z,100977.72
2023-04-02T22:06:28.308Z,100977.50
2023-04-02T22:09:01.437Z,100977.01
2023-04-02T22:11:35.033Z,100987.23
2023-04-02T22:14:05.990Z,100991.80
2023-04-02T22:16:35.685Z,100995.27
2023-04-02T22:19:07.406Z,101003.09
2023-04-02T22:21:36.194Z,100998.09
2023-04-02T22:24:06.415Z,101003.86
2023-04-02T22:26:35.092Z,101001.45
2023-04-02T22:29:04.027Z,101004.75
2023-04-02T22:31:34.945Z,101008.90
2023-04-02T22:34:04.439Z,101007.45
2023-04-02T22:36:32.864Z,101010.96
2023-04-02T22:39:01.826Z,101011.84
2023-04-02T22:41:32.052Z,101014.81
2023-04-02T22:44:01.332Z,101016.21
2023-04-02T22:46:30.315Z,101019.89
2023-04-02T22:48:58.449Z,101020.31
2023-04-02T22:51:28.083Z,101022.59
2023-04-02T22:53:57.311Z,101023.31
2023-04-02T22:56:28.870Z,101023.22
2023-04-02T22:58:56.674Z,101025.89
2023-04-02T23:01:33.837Z,101025.21
2023-04-02T23:04:01.568Z,101023.05
2023-04-02T23:06:29.637Z,101027.96
2023-04-02T23:08:57.538Z,101027.46
2023-04-02T23:11:27.518Z,101033.50
2023-04-02T23:13:57.326Z,101032.38
2023-04-02T23:16:27.667Z,101035.40
2023-04-02T23:18:56.390Z,101031.00
2023-04-02T23:21:25.152Z,101034.79
2023-04-02T23:23:53.287Z,101035.48
2023-04-02T23:26:29.235Z,101044.55
2023-04-02T23:28:59.039Z,101042.46
2023-04-02T23:31:27.504Z,101047.95
2023-04-02T23:33:55.924Z,101046.02
2023-04-02T23:36:28.450Z,101047.75
2023-04-02T23:38:59.747Z,101047.26
2023-04-02T23:41:29.089Z,101050.21
2023-04-02T23:43:58.204Z,101048.23
2023-04-02T23:46:26.535Z,101048.09
2023-04-02T23:48:55.609Z,101049.20
2023-04-02T23:51:24.853Z,101052.30
2023-04-02T23:53:53.869Z,101047.91
2023-04-02T23:56:22.886Z,101055.14
2023-04-02T23:58:51.084Z,101056.35
